sensor_id;sensor_type;location;lat;lon;timestamp;temperature;humidity
69503;SHT31;56704;54.242;12.442;2023-02-01T00:01:53;4.21;89.21
69503;SHT31;56704;54.242;12.442;2023-02-01T00:04:20;4.24;88.80
69503;SHT31;56704;54.242;12.442;2023-02-01T00:06:46;4.25;89.21
69503;SHT31;56704;54.242;12.442;2023-02-01T00:09:14;4.25;89.00
69503;SHT31;56704;54.242;12.442;2023-02-01T00:11:41;4.19;89.24
69503;SHT31;56704;54.242;12.442;2023-02-01T00:14:08;4.15;88.86
69503;SHT31;56704;54.242;12.442;2023-02-01T00:16:34;4.19;88.70
69503;SHT31;56704;54.242;12.442;2023-02-01T00:19:03;4.17;89.08
69503;SHT31;56704;54.242;12.442;2023-02-01T00:21:30;4.24;88.25
69503;SHT31;56704;54.242;12.442;2023-02-01T00:23:57;4.18;89.06
69503;SHT31;56704;54.242;12.442;2023-02-01T00:26:30;4.21;88.62
69503;SHT31;56704;54.242;12.442;2023-02-01T00:28:57;4.21;88.63
69503;SHT31;56704;54.242;12.442;2023-02-01T00:31:24;4.19;89.03
69503;SHT31;56704;54.242;12.442;2023-02-01T00:33:51;4.22;88.82
69503;SHT31;56704;54.242;12.442;2023-02-01T00:36:17;4.22;88.54
69503;SHT31;56704;54.242;12.442;2023-02-01T00:38:44;4.22;88.82
69503;SHT31;56704;54.242;12.442;2023-02-01T00:41:12;4.28;88.46
69503;SHT31;56704;54.242;12.442;2023-02-01T00:43:41;4.32;88.39
69503;SHT31;56704;54.242;12.442;2023-02-01T00:46:08;4.32;88.44
69503;SHT31;56704;54.242;12.442;2023-02-01T00:48:35;4.32;88.91
69503;SHT31;56704;54.242;12.442;2023-02-01T00:51:04;4.37;88.31
69503;SHT31;56704;54.242;12.442;2023-02-01T00:53:31;4.37;87.99
69503;SHT31;56704;54.242;12.442;2023-02-01T00:55:59;4.35;88.41
69503;SHT31;56704;54.242;12.442;2023-02-01T00:58:26;4.34;88.26
69503;SHT31;56704;54.242;12.442;2023-02-01T01:01:03;4.31;88.72
69503;SHT31;56704;54.242;12.442;2023-02-01T01:03:31;4.32;88.55
69503;SHT31;56704;54.242;12.442;2023-02-01T01:06:00;4.32;88.89
69503;SHT31;56704;54.242;12.442;2023-02-01T01:08:28;4.29;88.61
69503;SHT31;56704;54.242;12.442;2023-02-01T01:10:55;4.27;88.73
69503;SHT31;56704;54.242;12.442;2023-02-01T01:13:21;4.28;88.71
69503;SHT31;56704;54.242;12.442;2023-02-01T01:15:48;4.24;88.76
69503;SHT31;56704;54.242;12.442;2023-02-01T01:18:16;4.18;89.14
69503;SHT31;56704;54.242;12.442;2023-02-01T01:20:43;4.14;89.17
69503;SHT31;56704;54.242;12.442;2023-02-01T01:23:09;4.12;88.59
69503;SHT31;56704;54.242;12.442;2023-02-01T01:25:37;4.07;88.98
69503;SHT31;56704;54.242;12.442;2023-02-01T01:28:05;4.04;89.17
69503;SHT31;56704;54.242;12.442;2023-02-01T01:30:32;3.98;89.28
69503;SHT31;56704;54.242;12.442;2023-02-01T01:32:59;3.94;89.76
69503;SHT31;56704;54.242;12.442;2023-02-01T01:35:28;3.93;89.99
69503;SHT31;56704;54.242;12.442;2023-02-01T01:37:55;3.94;89.99
69503;SHT31;56704;54.242;12.442;2023-02-01T01:40:22;4.01;90.00
69503;SHT31;56704;54.242;12.442;2023-02-01T01:42:49;4.09;89.48
69503;SHT31;56704;54.242;12.442;2023-02-01T01:45:23;4.14;88.93
69503;SHT31;56704;54.242;12.442;2023-02-01T01:47:52;4.12;89.57
69503;SHT31;56704;54.242;12.442;2023-02-01T01:50:23;4.14;89.33
69503;SHT31;56704;54.242;12.442;2023-02-01T01:52:53;4.14;89.52
69503;SHT31;56704;54.242;12.442;2023-02-01T01:55:21;4.14;89.72
69503;SHT31;56704;54.242;12.442;2023-02-01T01:57:52;4.17;89.50
69503;SHT31;56704;54.242;12.442;2023-02-01T02:00:21;4.21;89.45
69503;SHT31;56704;54.242;12.442;2023-02-01T02:02:52;4.19;89.63
69503;SHT31;56704;54.242;12.442;2023-02-01T02:05:19;4.22;89.39
69503;SHT31;56704;54.242;12.442;2023-02-01T02:07:48;4.34;88.41
69503;SHT31;56704;54.242;12.442;2023-02-01T02:10:17;4.35;88.52
69503;SHT31;56704;54.242;12.442;2023-02-01T02:12:45;4.29;88.90
69503;SHT31;56704;54.242;12.442;2023-02-01T02:15:14;4.24;88.61
69503;SHT31;56704;54.242;12.442;2023-02-01T02:17:47;4.19;88.80
69503;SHT31;56704;54.242;12.442;2023-02-01T02:20:45;4.17;89.15
69503;SHT31;56704;54.242;12.442;2023-02-01T02:26:35;4.28;88.59
69503;SHT31;56704;54.242;12.442;2023-02-01T02:29:38;4.24;88.94
69503;SHT31;56704;54.242;12.442;2023-02-01T02:35:10;4.17;88.62
69503;SHT31;56704;54.242;12.442;2023-02-01T02:37:41;4.08;89.01
69503;SHT31;56704;54.242;12.442;2023-02-01T02:40:15;3.97;89.33
69503;SHT31;56704;54.242;12.442;2023-02-01T02:42:52;3.91;89.29
69503;SHT31;56704;54.242;12.442;2023-02-01T02:45:42;3.84;89.31
69503;SHT31;56704;54.242;12.442;2023-02-01T02:48:30;3.80;89.47
69503;SHT31;56704;54.242;12.442;2023-02-01T02:51:07;3.74;89.81
69503;SHT31;56704;54.242;12.442;2023-02-01T02:53:59;3.67;89.81
69503;SHT31;56704;54.242;12.442;2023-02-01T02:56:46;3.69;89.52
69503;SHT31;56704;54.242;12.442;2023-02-01T02:59:32;3.69;89.29
69503;SHT31;56704;54.242;12.442;2023-02-01T03:02:18;3.76;88.72
69503;SHT31;56704;54.242;12.442;2023-02-01T03:05:03;3.76;88.95
69503;SHT31;56704;54.242;12.442;2023-02-01T03:07:53;3.76;88.80
69503;SHT31;56704;54.242;12.442;2023-02-01T03:10:26;3.78;89.01
69503;SHT31;56704;54.242;12.442;2023-02-01T03:13:02;3.84;87.55
69503;SHT31;56704;54.242;12.442;2023-02-01T03:15:33;3.90;87.49
69503;SHT31;56704;54.242;12.442;2023-02-01T03:18:03;3.93;87.56
69503;SHT31;56704;54.242;12.442;2023-02-01T03:20:32;3.94;87.49
69503;SHT31;56704;54.242;12.442;2023-02-01T03:23:01;3.94;87.30
69503;SHT31;56704;54.242;12.442;2023-02-01T03:25:31;3.93;87.92
69503;SHT31;56704;54.242;12.442;2023-02-01T03:28:00;3.94;87.96
69503;SHT31;56704;54.242;12.442;2023-02-01T03:30:30;3.99;88.07
69503;SHT31;56704;54.242;12.442;2023-02-01T03:33:00;4.07;87.81
69503;SHT31;56704;54.242;12.442;2023-02-01T03:35:30;4.08;87.92
69503;SHT31;56704;54.242;12.442;2023-02-01T03:38:04;4.17;87.71
69503;SHT31;56704;54.242;12.442;2023-02-01T03:40:35;4.18;87.68
69503;SHT31;56704;54.242;12.442;2023-02-01T03:43:04;4.18;87.85
69503;SHT31;56704;54.242;12.442;2023-02-01T03:45:36;4.19;87.68
69503;SHT31;56704;54.242;12.442;2023-02-01T03:48:06;4.21;87.47
69503;SHT31;56704;54.242;12.442;2023-02-01T03:50:35;4.19;87.87
69503;SHT31;56704;54.242;12.442;2023-02-01T03:53:07;4.17;88.41
69503;SHT31;56704;54.242;12.442;2023-02-01T03:55:36;4.19;88.83
69503;SHT31;56704;54.242;12.442;2023-02-01T03:58:07;4.27;88.74
69503;SHT31;56704;54.242;12.442;2023-02-01T04:00:35;4.31;88.62
69503;SHT31;56704;54.242;12.442;2023-02-01T04:03:03;4.41;88.68
69503;SHT31;56704;54.242;12.442;2023-02-01T04:05:30;4.46;88.32
69503;SHT31;56704;54.242;12.442;2023-02-01T04:07:57;4.49;88.53
69503;SHT31;56704;54.242;12.442;2023-02-01T04:10:26;4.52;88.77
69503;SHT31;56704;54.242;12.442;2023-02-01T04:12:52;4.59;88.45
69503;SHT31;56704;54.242;12.442;2023-02-01T04:15:19;4.69;87.90
69503;SHT31;56704;54.242;12.442;2023-02-01T04:17:45;4.69;88.09
69503;SHT31;56704;54.242;12.442;2023-02-01T04:20:12;4.73;87.80
69503;SHT31;56704;54.242;12.442;2023-02-01T04:22:39;4.70;87.96
69503;SHT31;56704;54.242;12.442;2023-02-01T04:25:06;4.70;87.95
69503;SHT31;56704;54.242;12.442;2023-02-01T04:27:35;4.73;87.67
69503;SHT31;56704;54.242;12.442;2023-02-01T04:30:02;4.66;88.00
69503;SHT31;56704;54.242;12.442;2023-02-01T04:32:29;4.66;87.81
69503;SHT31;56704;54.242;12.442;2023-02-01T04:34:55;4.72;87.75
69503;SHT31;56704;54.242;12.442;2023-02-01T04:37:22;4.76;87.44
69503;SHT31;56704;54.242;12.442;2023-02-01T04:39:48;4.75;87.52
69503;SHT31;56704;54.242;12.442;2023-02-01T04:42:15;4.70;87.92
69503;SHT31;56704;54.242;12.442;2023-02-01T04:44:43;4.68;88.00
69503;SHT31;56704;54.242;12.442;2023-02-01T04:47:09;4.60;88.25
69503;SHT31;56704;54.242;12.442;2023-02-01T04:49:36;4.55;88.56
69503;SHT31;56704;54.242;12.442;2023-02-01T04:52:03;4.49;88.81
69503;SHT31;56704;54.242;12.442;2023-02-01T04:54:29;4.48;88.93
69503;SHT31;56704;54.242;12.442;2023-02-01T04:56:56;4.44;89.12
69503;SHT31;56704;54.242;12.442;2023-02-01T04:59:22;4.55;88.47
69503;SHT31;56704;54.242;12.442;2023-02-01T05:01:50;4.52;88.38
69503;SHT31;56704;54.242;12.442;2023-02-01T05:04:17;4.53;88.38
69503;SHT31;56704;54.242;12.442;2023-02-01T05:06:44;4.55;88.56
69503;SHT31;56704;54.242;12.442;2023-02-01T05:09:10;4.58;88.25
69503;SHT31;56704;54.242;12.442;2023-02-01T05:11:37;4.58;88.46
69503;SHT31;56704;54.242;12.442;2023-02-01T05:14:21;4.52;88.80
69503;SHT31;56704;54.242;12.442;2023-02-01T05:16:48;4.59;88.65
69503;SHT31;56704;54.242;12.442;2023-02-01T05:19:16;4.62;88.61
69503;SHT31;56704;54.242;12.442;2023-02-01T05:21:42;4.63;88.65
69503;SHT31;56704;54.242;12.442;2023-02-01T05:24:09;4.69;88.77
69503;SHT31;56704;54.242;12.442;2023-02-01T05:26:38;4.77;88.26
69503;SHT31;56704;54.242;12.442;2023-02-01T05:29:05;4.79;88.33
69503;SHT31;56704;54.242;12.442;2023-02-01T05:31:31;4.80;88.18
69503;SHT31;56704;54.242;12.442;2023-02-01T05:33:58;4.81;88.48
69503;SHT31;56704;54.242;12.442;2023-02-01T05:36:26;4.83;87.97
69503;SHT31;56704;54.242;12.442;2023-02-01T05:38:53;4.89;88.21
69503;SHT31;56704;54.242;12.442;2023-02-01T05:41:19;4.93;87.90
69503;SHT31;56704;54.242;12.442;2023-02-01T05:43:47;4.91;88.00
69503;SHT31;56704;54.242;12.442;2023-02-01T05:46:13;4.91;88.27
69503;SHT31;56704;54.242;12.442;2023-02-01T05:48:41;4.91;88.22
69503;SHT31;56704;54.242;12.442;2023-02-01T05:51:08;4.97;87.72
69503;SHT31;56704;54.242;12.442;2023-02-01T05:53:36;5.00;88.05
69503;SHT31;56704;54.242;12.442;2023-02-01T05:56:04;5.03;87.88
69503;SHT31;56704;54.242;12.442;2023-02-01T05:58:31;5.07;88.00
69503;SHT31;56704;54.242;12.442;2023-02-01T06:00:58;5.07;87.91
69503;SHT31;56704;54.242;12.442;2023-02-01T06:03:25;5.04;88.27
69503;SHT31;56704;54.242;12.442;2023-02-01T06:05:54;5.06;87.86
69503;SHT31;56704;54.242;12.442;2023-02-01T06:08:21;5.06;87.89
69503;SHT31;56704;54.242;12.442;2023-02-01T06:10:51;5.00;87.87
69503;SHT31;56704;54.242;12.442;2023-02-01T06:13:23;4.96;87.96
69503;SHT31;56704;54.242;12.442;2023-02-01T06:15:49;4.93;87.83
69503;SHT31;56704;54.242;12.442;2023-02-01T06:18:16;4.90;87.75
69503;SHT31;56704;54.242;12.442;2023-02-01T06:20:43;4.93;87.46
69503;SHT31;56704;54.242;12.442;2023-02-01T06:23:10;4.86;87.83
69503;SHT31;56704;54.242;12.442;2023-02-01T06:25:36;4.81;87.70
69503;SHT31;56704;54.242;12.442;2023-02-01T06:28:05;4.76;88.00
69503;SHT31;56704;54.242;12.442;2023-02-01T06:30:33;4.70;87.87
69503;SHT31;56704;54.242;12.442;2023-02-01T06:33:00;4.66;88.11
69503;SHT31;56704;54.242;12.442;2023-02-01T06:35:26;4.65;88.52
69503;SHT31;56704;54.242;12.442;2023-02-01T06:37:53;4.59;88.72
69503;SHT31;56704;54.242;12.442;2023-02-01T06:40:19;4.59;88.97
69503;SHT31;56704;54.242;12.442;2023-02-01T06:42:48;4.55;89.55
69503;SHT31;56704;54.242;12.442;2023-02-01T06:45:16;4.50;89.78
69503;SHT31;56704;54.242;12.442;2023-02-01T06:47:42;4.49;89.95
69503;SHT31;56704;54.242;12.442;2023-02-01T06:50:10;4.46;90.01
69503;SHT31;56704;54.242;12.442;2023-02-01T06:52:36;4.49;89.96
69503;SHT31;56704;54.242;12.442;2023-02-01T06:55:03;4.46;90.03
69503;SHT31;56704;54.242;12.442;2023-02-01T06:57:30;4.50;89.85
69503;SHT31;56704;54.242;12.442;2023-02-01T06:59:58;4.52;89.72
69503;SHT31;56704;54.242;12.442;2023-02-01T07:02:26;4.52;89.73
69503;SHT31;56704;54.242;12.442;2023-02-01T07:04:53;4.50;89.69
69503;SHT31;56704;54.242;12.442;2023-02-01T07:07:19;4.56;89.51
69503;SHT31;56704;54.242;12.442;2023-02-01T07:09:47;4.52;89.63
69503;SHT31;56704;54.242;12.442;2023-02-01T07:12:14;4.52;89.55
69503;SHT31;56704;54.242;12.442;2023-02-01T07:14:41;4.50;89.97
69503;SHT31;56704;54.242;12.442;2023-02-01T07:17:07;4.41;91.24
69503;SHT31;56704;54.242;12.442;2023-02-01T07:19:35;4.19;92.05
69503;SHT31;56704;54.242;12.442;2023-02-01T07:22:02;4.07;92.76
69503;SHT31;56704;54.242;12.442;2023-02-01T07:24:28;3.98;92.50
69503;SHT31;56704;54.242;12.442;2023-02-01T07:26:56;3.91;93.08
69503;SHT31;56704;54.242;12.442;2023-02-01T07:29:23;3.84;93.44
69503;SHT31;56704;54.242;12.442;2023-02-01T07:31:49;3.77;93.58
69503;SHT31;56704;54.242;12.442;2023-02-01T07:34:16;3.70;93.64
69503;SHT31;56704;54.242;12.442;2023-02-01T07:36:44;3.63;94.47
69503;SHT31;56704;54.242;12.442;2023-02-01T07:39:10;3.59;94.77
69503;SHT31;56704;54.242;12.442;2023-02-01T07:41:37;3.56;94.97
69503;SHT31;56704;54.242;12.442;2023-02-01T07:44:04;3.53;94.97
69503;SHT31;56704;54.242;12.442;2023-02-01T07:46:31;3.49;95.53
69503;SHT31;56704;54.242;12.442;2023-02-01T07:48:57;3.43;95.51
69503;SHT31;56704;54.242;12.442;2023-02-01T07:51:24;3.42;95.79
69503;SHT31;56704;54.242;12.442;2023-02-01T07:53:52;3.39;95.73
69503;SHT31;56704;54.242;12.442;2023-02-01T07:56:20;3.40;95.34
69503;SHT31;56704;54.242;12.442;2023-02-01T07:58:48;3.43;95.28
69503;SHT31;56704;54.242;12.442;2023-02-01T08:01:15;3.42;95.28
69503;SHT31;56704;54.242;12.442;2023-02-01T08:03:47;3.28;94.95
69503;SHT31;56704;54.242;12.442;2023-02-01T08:06:14;3.11;95.11
69503;SHT31;56704;54.242;12.442;2023-02-01T08:08:40;2.95;95.35
69503;SHT31;56704;54.242;12.442;2023-02-01T08:11:09;2.88;95.37
69503;SHT31;56704;54.242;12.442;2023-02-01T08:13:35;2.76;95.62
69503;SHT31;56704;54.242;12.442;2023-02-01T08:16:04;2.76;95.93
69503;SHT31;56704;54.242;12.442;2023-02-01T08:18:31;2.76;96.04
69503;SHT31;56704;54.242;12.442;2023-02-01T08:21:03;2.78;96.15
69503;SHT31;56704;54.242;12.442;2023-02-01T08:23:30;2.80;96.20
69503;SHT31;56704;54.242;12.442;2023-02-01T08:26:05;2.84;96.19
69503;SHT31;56704;54.242;12.442;2023-02-01T08:28:34;2.88;96.33
69503;SHT31;56704;54.242;12.442;2023-02-01T08:31:04;2.89;96.45
69503;SHT31;56704;54.242;12.442;2023-02-01T08:33:31;2.97;96.53
69503;SHT31;56704;54.242;12.442;2023-02-01T08:36:00;3.08;96.49
69503;SHT31;56704;54.242;12.442;2023-02-01T08:38:27;3.20;96.49
69503;SHT31;56704;54.242;12.442;2023-02-01T08:40:53;3.32;96.40
69503;SHT31;56704;54.242;12.442;2023-02-01T08:43:20;3.36;96.36
69503;SHT31;56704;54.242;12.442;2023-02-01T08:45:49;3.46;96.17
69503;SHT31;56704;54.242;12.442;2023-02-01T08:48:15;3.44;96.22
69503;SHT31;56704;54.242;12.442;2023-02-01T08:50:42;3.43;96.08
69503;SHT31;56704;54.242;12.442;2023-02-01T08:53:09;3.49;94.97
69503;SHT31;56704;54.242;12.442;2023-02-01T08:55:37;3.43;95.01
69503;SHT31;56704;54.242;12.442;2023-02-01T08:58:04;3.42;95.02
69503;SHT31;56704;54.242;12.442;2023-02-01T09:00:30;3.36;95.02
69503;SHT31;56704;54.242;12.442;2023-02-01T09:02:58;3.26;95.02
69503;SHT31;56704;54.242;12.442;2023-02-01T09:05:25;3.22;95.08
69503;SHT31;56704;54.242;12.442;2023-02-01T09:07:53;3.16;95.05
69503;SHT31;56704;54.242;12.442;2023-02-01T09:10:19;3.07;95.10
69503;SHT31;56704;54.242;12.442;2023-02-01T09:12:46;3.07;95.06
69503;SHT31;56704;54.242;12.442;2023-02-01T09:15:12;3.13;95.11
69503;SHT31;56704;54.242;12.442;2023-02-01T09:17:39;3.16;95.13
69503;SHT31;56704;54.242;12.442;2023-02-01T09:20:11;3.20;95.11
69503;SHT31;56704;54.242;12.442;2023-02-01T09:22:37;3.23;95.14
69503;SHT31;56704;54.242;12.442;2023-02-01T09:25:05;3.25;95.15
69503;SHT31;56704;54.242;12.442;2023-02-01T09:27:33;3.22;95.14
69503;SHT31;56704;54.242;12.442;2023-02-01T09:29:59;3.30;95.14
69503;SHT31;56704;54.242;12.442;2023-02-01T09:32:26;3.29;95.14
69503;SHT31;56704;54.242;12.442;2023-02-01T09:34:52;3.35;95.15
69503;SHT31;56704;54.242;12.442;2023-02-01T09:37:20;3.35;95.18
69503;SHT31;56704;54.242;12.442;2023-02-01T09:39:47;3.30;95.16
69503;SHT31;56704;54.242;12.442;2023-02-01T09:42:25;3.22;95.17
69503;SHT31;56704;54.242;12.442;2023-02-01T09:45:06;3.18;95.13
69503;SHT31;56704;54.242;12.442;2023-02-01T09:47:41;3.15;95.17
69503;SHT31;56704;54.242;12.442;2023-02-01T09:50:12;3.11;95.19
69503;SHT31;56704;54.242;12.442;2023-02-01T09:52:47;3.15;95.16
69503;SHT31;56704;54.242;12.442;2023-02-01T09:55:18;3.11;95.19
69503;SHT31;56704;54.242;12.442;2023-02-01T09:57:51;3.11;95.20
69503;SHT31;56704;54.242;12.442;2023-02-01T10:00:23;3.09;95.21
69503;SHT31;56704;54.242;12.442;2023-02-01T10:02:54;3.09;95.22
69503;SHT31;56704;54.242;12.442;2023-02-01T10:05:43;3.07;95.20
69503;SHT31;56704;54.242;12.442;2023-02-01T10:08:22;3.12;95.20
69503;SHT31;56704;54.242;12.442;2023-02-01T10:10:55;3.11;95.19
69503;SHT31;56704;54.242;12.442;2023-02-01T10:13:44;3.12;95.20
69503;SHT31;56704;54.242;12.442;2023-02-01T10:16:22;3.09;95.20
69503;SHT31;56704;54.242;12.442;2023-02-01T10:19:13;3.07;95.23
69503;SHT31;56704;54.242;12.442;2023-02-01T10:21:48;3.05;95.21
69503;SHT31;56704;54.242;12.442;2023-02-01T10:24:31;3.09;95.23
69503;SHT31;56704;54.242;12.442;2023-02-01T10:27:06;3.13;95.21
69503;SHT31;56704;54.242;12.442;2023-02-01T10:29:38;3.15;95.24
69503;SHT31;56704;54.242;12.442;2023-02-01T10:32:13;3.22;95.19
69503;SHT31;56704;54.242;12.442;2023-02-01T10:34:40;3.25;95.23
69503;SHT31;56704;54.242;12.442;2023-02-01T10:37:16;3.32;95.24
69503;SHT31;56704;54.242;12.442;2023-02-01T10:39:46;3.29;95.22
69503;SHT31;56704;54.242;12.442;2023-02-01T10:42:14;2.95;95.21
69503;SHT31;56704;54.242;12.442;2023-02-01T10:44:43;2.60;95.22
69503;SHT31;56704;54.242;12.442;2023-02-01T10:47:13;2.53;95.22
69503;SHT31;56704;54.242;12.442;2023-02-01T10:49:43;2.48;95.23
69503;SHT31;56704;54.242;12.442;2023-02-01T10:52:16;2.41;95.22
69503;SHT31;56704;54.242;12.442;2023-02-01T10:54:43;2.40;95.20
69503;SHT31;56704;54.242;12.442;2023-02-01T10:57:21;2.33;95.23
69503;SHT31;56704;54.242;12.442;2023-02-01T10:59:51;2.16;95.19
69503;SHT31;56704;54.242;12.442;2023-02-01T11:02:25;2.09;95.11
69503;SHT31;56704;54.242;12.442;2023-02-01T11:04:59;2.01;95.14
69503;SHT31;56704;54.242;12.442;2023-02-01T11:07:27;2.01;95.14
69503;SHT31;56704;54.242;12.442;2023-02-01T11:09:55;2.15;95.12
69503;SHT31;56704;54.242;12.442;2023-02-01T11:12:30;2.46;95.16
69503;SHT31;56704;54.242;12.442;2023-02-01T11:14:59;2.67;95.15
69503;SHT31;56704;54.242;12.442;2023-02-01T11:17:29;2.88;95.18
69503;SHT31;56704;54.242;12.442;2023-02-01T11:19:59;3.01;95.15
69503;SHT31;56704;54.242;12.442;2023-02-01T11:22:27;3.26;95.16
69503;SHT31;56704;54.242;12.442;2023-02-01T11:24:55;3.55;95.15
69503;SHT31;56704;54.242;12.442;2023-02-01T11:27:23;3.87;95.15
69503;SHT31;56704;54.242;12.442;2023-02-01T11:29:55;4.14;95.19
69503;SHT31;56704;54.242;12.442;2023-02-01T11:32:23;4.19;95.21
69503;SHT31;56704;54.242;12.442;2023-02-01T11:34:52;4.41;95.17
69503;SHT31;56704;54.242;12.442;2023-02-01T11:37:22;4.46;95.18
69503;SHT31;56704;54.242;12.442;2023-02-01T11:39:54;4.46;95.17
69503;SHT31;56704;54.242;12.442;2023-02-01T11:42:22;4.53;95.20
69503;SHT31;56704;54.242;12.442;2023-02-01T11:44:49;4.77;95.21
69503;SHT31;56704;54.242;12.442;2023-02-01T11:47:24;5.08;95.20
69503;SHT31;56704;54.242;12.442;2023-02-01T11:49:52;4.91;95.20
69503;SHT31;56704;54.242;12.442;2023-02-01T11:52:31;4.50;95.19
69503;SHT31;56704;54.242;12.442;2023-02-01T11:55:18;4.37;95.23
69503;SHT31;56704;54.242;12.442;2023-02-01T11:58:00;4.22;95.23
69503;SHT31;56704;54.242;12.442;2023-02-01T12:00:40;4.07;95.23
69503;SHT31;56704;54.242;12.442;2023-02-01T12:06:18;3.76;95.24
69503;SHT31;56704;54.242;12.442;2023-02-01T12:09:06;3.57;95.20
69503;SHT31;56704;54.242;12.442;2023-02-01T12:11:43;3.44;95.20
69503;SHT31;56704;54.242;12.442;2023-02-01T12:14:23;3.39;95.21
69503;SHT31;56704;54.242;12.442;2023-02-01T12:17:03;3.38;95.19
69503;SHT31;56704;54.242;12.442;2023-02-01T12:19:59;3.40;95.18
69503;SHT31;56704;54.242;12.442;2023-02-01T12:22:37;3.46;95.22
69503;SHT31;56704;54.242;12.442;2023-02-01T12:25:28;3.69;95.21
69503;SHT31;56704;54.242;12.442;2023-02-01T12:28:15;4.09;95.21
69503;SHT31;56704;54.242;12.442;2023-02-01T12:31:00;4.42;95.23
69503;SHT31;56704;54.242;12.442;2023-02-01T12:33:39;4.69;95.23
69503;SHT31;56704;54.242;12.442;2023-02-01T12:36:14;4.97;95.22
69503;SHT31;56704;54.242;12.442;2023-02-01T12:38:49;4.91;95.24
69503;SHT31;56704;54.242;12.442;2023-02-01T12:44:25;4.56;95.27
69503;SHT31;56704;54.242;12.442;2023-02-01T12:46:56;4.48;95.23
69503;SHT31;56704;54.242;12.442;2023-02-01T12:49:29;4.37;95.27
69503;SHT31;56704;54.242;12.442;2023-02-01T12:52:02;4.31;95.25
69503;SHT31;56704;54.242;12.442;2023-02-01T12:54:35;4.29;95.29
69503;SHT31;56704;54.242;12.442;2023-02-01T12:57:04;4.24;95.30
69503;SHT31;56704;54.242;12.442;2023-02-01T12:59:34;4.24;95.27
69503;SHT31;56704;54.242;12.442;2023-02-01T13:02:10;4.24;95.29
69503;SHT31;56704;54.242;12.442;2023-02-01T13:04:48;4.18;95.27
69503;SHT31;56704;54.242;12.442;2023-02-01T13:07:19;4.19;95.27
69503;SHT31;56704;54.242;12.442;2023-02-01T13:09:51;4.19;95.30
69503;SHT31;56704;54.242;12.442;2023-02-01T13:12:23;4.22;95.29
69503;SHT31;56704;54.242;12.442;2023-02-01T13:14:54;4.28;95.28
69503;SHT31;56704;54.242;12.442;2023-02-01T13:17:23;4.28;95.26
69503;SHT31;56704;54.242;12.442;2023-02-01T13:19:53;4.32;95.29
69503;SHT31;56704;54.242;12.442;2023-02-01T13:22:25;4.39;95.28
69503;SHT31;56704;54.242;12.442;2023-02-01T13:24:56;4.41;95.29
69503;SHT31;56704;54.242;12.442;2023-02-01T13:27:26;4.45;95.27
69503;SHT31;56704;54.242;12.442;2023-02-01T13:29:58;4.31;95.51
69503;SHT31;56704;54.242;12.442;2023-02-01T13:32:51;3.80;99.91
69503;SHT31;56704;54.242;12.442;2023-02-01T13:35:32;3.60;98.90
69503;SHT31;56704;54.242;12.442;2023-02-01T13:38:22;2.95;97.63
69503;SHT31;56704;54.242;12.442;2023-02-01T13:41:04;2.60;96.60
69503;SHT31;56704;54.242;12.442;2023-02-01T13:43:34;2.44;96.35
69503;SHT31;56704;54.242;12.442;2023-02-01T13:46:04;2.20;96.18
69503;SHT31;56704;54.242;12.442;2023-02-01T13:48:37;2.07;96.08
69503;SHT31;56704;54.242;12.442;2023-02-01T13:51:05;2.05;96.01
69503;SHT31;56704;54.242;12.442;2023-02-01T13:53:34;2.02;96.04
69503;SHT31;56704;54.242;12.442;2023-02-01T13:56:03;2.06;96.04
69503;SHT31;56704;54.242;12.442;2023-02-01T13:58:35;2.05;96.04
69503;SHT31;56704;54.242;12.442;2023-02-01T14:01:33;2.10;96.02
69503;SHT31;56704;54.242;12.442;2023-02-01T14:04:03;2.22;96.06
69503;SHT31;56704;54.242;12.442;2023-02-01T14:06:41;2.25;96.05
69503;SHT31;56704;54.242;12.442;2023-02-01T14:09:34;2.32;96.04
69503;SHT31;56704;54.242;12.442;2023-02-01T14:12:43;2.34;95.97
69503;SHT31;56704;54.242;12.442;2023-02-01T14:15:20;2.32;95.95
69503;SHT31;56704;54.242;12.442;2023-02-01T14:17:48;2.29;95.92
69503;SHT31;56704;54.242;12.442;2023-02-01T14:20:46;2.26;95.87
69503;SHT31;56704;54.242;12.442;2023-02-01T14:23:28;2.30;95.86
69503;SHT31;56704;54.242;12.442;2023-02-01T14:26:15;2.27;95.79
69503;SHT31;56704;54.242;12.442;2023-02-01T14:29:01;2.23;95.80
69503;SHT31;56704;54.242;12.442;2023-02-01T14:31:49;2.23;95.76
69503;SHT31;56704;54.242;12.442;2023-02-01T14:34:21;2.26;95.78
69503;SHT31;56704;54.242;12.442;2023-02-01T14:36:51;2.29;95.78
69503;SHT31;56704;54.242;12.442;2023-02-01T14:39:29;2.33;95.78
69503;SHT31;56704;54.242;12.442;2023-02-01T14:42:01;2.37;95.74
69503;SHT31;56704;54.242;12.442;2023-02-01T14:44:34;2.43;95.73
69503;SHT31;56704;54.242;12.442;2023-02-01T14:49:55;2.70;95.64
69503;SHT31;56704;54.242;12.442;2023-02-01T14:52:28;2.78;95.60
69503;SHT31;56704;54.242;12.442;2023-02-01T14:54:59;2.88;95.57
69503;SHT31;56704;54.242;12.442;2023-02-01T14:57:29;2.95;95.43
69503;SHT31;56704;54.242;12.442;2023-02-01T15:00:03;3.02;95.30
69503;SHT31;56704;54.242;12.442;2023-02-01T15:02:33;2.99;95.19
69503;SHT31;56704;54.242;12.442;2023-02-01T15:05:01;2.97;95.08
69503;SHT31;56704;54.242;12.442;2023-02-01T15:07:28;2.92;94.96
69503;SHT31;56704;54.242;12.442;2023-02-01T15:09:57;2.91;94.93
69503;SHT31;56704;54.242;12.442;2023-02-01T15:12:25;2.89;94.92
69503;SHT31;56704;54.242;12.442;2023-02-01T15:15:14;2.87;94.80
69503;SHT31;56704;54.242;12.442;2023-02-01T15:17:49;2.88;94.77
69503;SHT31;56704;54.242;12.442;2023-02-01T15:20:18;2.89;94.72
69503;SHT31;56704;54.242;12.442;2023-02-01T15:22:53;2.87;94.71
69503;SHT31;56704;54.242;12.442;2023-02-01T15:25:21;2.89;94.61
69503;SHT31;56704;54.242;12.442;2023-02-01T15:27:48;2.88;94.54
69503;SHT31;56704;54.242;12.442;2023-02-01T15:30:19;2.89;94.46
69503;SHT31;56704;54.242;12.442;2023-02-01T15:32:47;2.95;94.43
69503;SHT31;56704;54.242;12.442;2023-02-01T15:35:36;3.02;94.16
69503;SHT31;56704;54.242;12.442;2023-02-01T15:38:31;3.07;93.96
69503;SHT31;56704;54.242;12.442;2023-02-01T15:41:00;3.02;93.91
69503;SHT31;56704;54.242;12.442;2023-02-01T15:43:28;3.04;93.86
69503;SHT31;56704;54.242;12.442;2023-02-01T15:45:58;3.15;93.59
69503;SHT31;56704;54.242;12.442;2023-02-01T15:48:27;3.13;93.64
69503;SHT31;56704;54.242;12.442;2023-02-01T15:50:55;3.18;93.57
69503;SHT31;56704;54.242;12.442;2023-02-01T15:53:24;3.25;93.62
69503;SHT31;56704;54.242;12.442;2023-02-01T15:55:56;3.38;93.26
69503;SHT31;56704;54.242;12.442;2023-02-01T15:58:25;3.44;93.21
69503;SHT31;56704;54.242;12.442;2023-02-01T16:00:54;3.49;93.17
69503;SHT31;56704;54.242;12.442;2023-02-01T16:03:36;3.57;93.03
69503;SHT31;56704;54.242;12.442;2023-02-01T16:06:05;3.57;93.03
69503;SHT31;56704;54.242;12.442;2023-02-01T16:08:48;3.63;92.81
69503;SHT31;56704;54.242;12.442;2023-02-01T16:11:30;3.66;92.91